createdAt,value
2022-10-19T00:02:24.745Z,0.90
2022-10-19T00:04:51.622Z,1.23
2022-10-19T00:07:18.247Z,1.25
2022-10-19T00:09:44.966Z,0.90
2022-10-19T00:12:12.982Z,1.23
2022-10-19T00:14:39.577Z,0.90
2022-10-19T00:17:06.271Z,1.10
2022-10-19T00:19:33.226Z,1.30
2022-10-19T00:21:59.854Z,1.27
2022-10-19T00:24:26.549Z,1.00
2022-10-19T00:26:53.475Z,1.00
2022-10-19T00:29:20.126Z,0.95
2022-10-19T00:31:49.794Z,1.10
2022-10-19T00:34:17.083Z,1.02
2022-10-19T00:36:44.072Z,0.82
2022-10-19T00:39:13.910Z,1.35
2022-10-19T00:41:41.097Z,1.25
2022-10-19T00:44:13.709Z,1.02
2022-10-19T00:46:44.138Z,1.08
2022-10-19T00:49:16.012Z,1.08
2022-10-19T00:51:47.653Z,1.23
2022-10-19T00:54:16.656Z,1.40
2022-10-19T00:56:47.563Z,0.80
2022-10-19T00:59:18.728Z,0.98
2022-10-19T01:01:46.953Z,1.23
2022-10-19T01:04:14.406Z,1.00
2022-10-19T01:06:42.289Z,1.48
2022-10-19T01:09:09.469Z,1.30
2022-10-19T01:12:07.554Z,0.82
2022-10-19T01:14:49.446Z,0.93
2022-10-19T01:17:26.671Z,0.55
2022-10-19T01:20:22.668Z,1.17
2022-10-19T01:23:10.223Z,1.00
2022-10-19T01:25:48.145Z,1.48
2022-10-19T01:28:48.346Z,0.80
2022-10-19T01:31:32.908Z,1.33
2022-10-19T01:34:38.822Z,1.08
2022-10-19T01:37:22.906Z,1.02
2022-10-19T01:40:03.281Z,1.02
2022-10-19T01:42:48.996Z,1.40
2022-10-19T01:45:19.302Z,1.35
2022-10-19T01:47:53.363Z,1.23
2022-10-19T01:50:31.725Z,1.30
2022-10-19T01:52:59.844Z,0.75
2022-10-19T01:55:27.727Z,1.10
2022-10-19T01:58:02.320Z,1.05
2022-10-19T02:00:31.430Z,0.88
2022-10-19T02:03:00.590Z,0.98
2022-10-19T02:05:32.427Z,2.30
2022-10-19T02:08:11.442Z,1.20
2022-10-19T02:10:41.613Z,1.58
2022-10-19T02:13:09.486Z,1.08
2022-10-19T02:15:40.950Z,0.90
2022-10-19T02:18:10.351Z,0.88
2022-10-19T02:20:37.610Z,0.80
2022-10-19T02:23:05.776Z,1.70
2022-10-19T02:25:33.790Z,1.23
2022-10-19T02:28:03.504Z,1.27
2022-10-19T02:30:30.375Z,1.23
2022-10-19T02:32:57.318Z,1.37
2022-10-19T02:35:23.973Z,1.08
2022-10-19T02:37:50.986Z,1.37
2022-10-19T02:40:18.203Z,1.27
2022-10-19T02:42:55.161Z,0.95
2022-10-19T02:45:25.805Z,0.93
2022-10-19T02:47:58.136Z,1.80
2022-10-19T02:50:25.568Z,1.33
2022-10-19T02:52:52.452Z,1.50
2022-10-19T02:55:19.202Z,0.90
2022-10-19T02:57:46.152Z,1.58
2022-10-19T03:00:12.980Z,1.10
2022-10-19T03:02:39.633Z,1.12
2022-10-19T03:05:06.977Z,1.52
2022-10-19T03:07:33.809Z,0.95
2022-10-19T03:10:00.720Z,1.08
2022-10-19T03:12:27.657Z,0.77
2022-10-19T03:14:54.333Z,1.42
2022-10-19T03:17:20.981Z,1.00
2022-10-19T03:19:47.871Z,1.67
2022-10-19T03:22:15.021Z,1.12
2022-10-19T03:24:41.725Z,1.40
2022-10-19T03:27:08.750Z,1.00
2022-10-19T03:29:35.391Z,1.17
2022-10-19T03:32:02.133Z,1.30
2022-10-19T03:34:29.376Z,1.00
2022-10-19T03:36:56.794Z,0.93
2022-10-19T03:39:23.449Z,1.25
2022-10-19T03:41:50.616Z,1.30
2022-10-19T03:44:17.190Z,1.50
2022-10-19T03:46:43.970Z,1.10
2022-10-19T03:49:11.932Z,0.90
2022-10-19T03:51:38.694Z,0.77
2022-10-19T03:54:08.232Z,1.10
2022-10-19T03:56:35.988Z,0.85
2022-10-19T03:59:04.609Z,0.65
2022-10-19T04:01:34.182Z,0.77
2022-10-19T04:04:04.174Z,0.90
2022-10-19T04:06:33.509Z,0.80
2022-10-19T04:09:00.755Z,1.40
2022-10-19T04:11:29.858Z,1.45
2022-10-19T04:13:58.174Z,0.88
2022-10-19T04:16:26.163Z,1.52
2022-10-19T04:18:53.110Z,0.80
2022-10-19T04:21:25.108Z,0.70
2022-10-19T04:23:59.232Z,1.17
2022-10-19T04:26:26.601Z,1.08
2022-10-19T04:28:53.710Z,1.00
2022-10-19T04:31:20.515Z,0.80
2022-10-19T04:33:47.434Z,0.80
2022-10-19T04:36:14.052Z,0.57
2022-10-19T04:38:40.755Z,1.35
2022-10-19T04:41:12.278Z,1.05
2022-10-19T04:43:39.392Z,1.17
2022-10-19T04:46:09.484Z,1.33
2022-10-19T04:48:37.927Z,1.27
2022-10-19T04:51:05.528Z,1.52
2022-10-19T04:53:33.386Z,1.55
2022-10-19T04:56:03.847Z,1.73
2022-10-19T04:58:30.484Z,1.48
2022-10-19T05:00:57.192Z,1.25
2022-10-19T05:03:24.179Z,1.25
2022-10-19T05:05:50.845Z,1.50
2022-10-19T05:08:17.578Z,1.37
2022-10-19T05:10:47.595Z,1.58
2022-10-19T05:13:14.615Z,1.10
2022-10-19T05:15:41.358Z,1.62
2022-10-19T05:18:08.253Z,1.45
2022-10-19T05:20:34.970Z,1.80
2022-10-19T05:23:06.252Z,1.17
2022-10-19T05:25:34.235Z,1.10
2022-10-19T05:28:00.852Z,1.45
2022-10-19T05:30:27.499Z,1.10
2022-10-19T05:32:54.434Z,1.23
2022-10-19T05:35:22.619Z,1.02
2022-10-19T05:37:54.396Z,1.25
2022-10-19T05:40:21.373Z,1.15
2022-10-19T05:42:48.021Z,1.30
2022-10-19T05:45:14.788Z,0.95
2022-10-19T05:47:41.670Z,1.00
2022-10-19T05:50:08.701Z,1.00
2022-10-19T05:52:35.279Z,1.40
2022-10-19T05:55:02.344Z,0.62
2022-10-19T05:57:32.527Z,0.85
2022-10-19T05:59:59.480Z,1.02
2022-10-19T06:02:26.411Z,0.88
2022-10-19T06:04:53.323Z,1.30
2022-10-19T06:07:19.912Z,1.02
2022-10-19T06:09:47.716Z,0.60
2022-10-19T06:12:16.216Z,1.00
2022-10-19T06:14:43.169Z,0.60
2022-10-19T06:17:09.905Z,0.62
2022-10-19T06:19:37.131Z,0.90
2022-10-19T06:22:03.740Z,0.57
2022-10-19T06:24:30.434Z,0.85
2022-10-19T06:26:57.347Z,0.98
2022-10-19T06:29:23.959Z,0.50
2022-10-19T06:31:50.647Z,0.70
2022-10-19T06:34:17.702Z,0.50
2022-10-19T06:36:44.403Z,0.90
2022-10-19T06:39:11.145Z,0.82
2022-10-19T06:41:38.056Z,0.40
2022-10-19T06:44:07.084Z,0.57
2022-10-19T06:46:34.000Z,0.30
2022-10-19T06:49:02.267Z,0.20
2022-10-19T06:51:30.249Z,0.45
2022-10-19T06:53:57.505Z,0.15
2022-10-19T06:56:26.246Z,0.50
2022-10-19T06:58:53.446Z,0.15
2022-10-19T07:01:20.235Z,0.25
2022-10-19T07:03:47.231Z,0.10
2022-10-19T07:06:14.363Z,0.15
2022-10-19T07:08:42.638Z,0.25
2022-10-19T07:11:12.835Z,0.40
2022-10-19T07:13:39.535Z,0.05
2022-10-19T07:16:16.101Z,0.20
2022-10-19T07:18:47.497Z,0.10
2022-10-19T07:21:15.955Z,0.17
2022-10-19T07:23:44.478Z,0.43
2022-10-19T07:26:17.680Z,0.10
2022-10-19T07:28:46.493Z,0.20
2022-10-19T07:31:17.856Z,0.30
2022-10-19T07:33:44.747Z,0.33
2022-10-19T07:36:13.846Z,0.32
2022-10-19T07:38:41.185Z,0.30
2022-10-19T07:41:12.662Z,0.35
2022-10-19T07:43:40.266Z,0.43
2022-10-19T07:46:11.159Z,0.35
2022-10-19T07:48:37.883Z,0.55
2022-10-19T07:51:06.375Z,0.40
2022-10-19T07:53:34.222Z,0.62
2022-10-19T07:56:10.162Z,0.30
2022-10-19T07:58:38.366Z,0.75
2022-10-19T08:01:10.622Z,0.50
2022-10-19T08:06:25.519Z,0.28
2022-10-19T08:08:54.089Z,0.55
2022-10-19T08:11:32.620Z,0.32
2022-10-19T08:13:59.869Z,0.40
2022-10-19T08:16:39.519Z,0.30
2022-10-19T08:19:09.245Z,0.20
2022-10-19T08:21:37.760Z,0.32
2022-10-19T08:24:05.316Z,0.43
2022-10-19T08:26:33.733Z,0.43
2022-10-19T08:29:01.906Z,0.20
2022-10-19T08:31:29.734Z,0.30
2022-10-19T08:33:57.003Z,0.25
2022-10-19T08:36:24.026Z,0.10
2022-10-19T08:38:51.204Z,0.32
2022-10-19T08:41:23.192Z,0.10
2022-10-19T08:47:02.444Z,0.40
2022-10-19T08:52:01.911Z,0.32
2022-10-19T08:54:37.856Z,0.52
2022-10-19T08:57:33.186Z,0.50
2022-10-19T09:00:08.086Z,0.10
2022-10-19T09:03:13.695Z,0.57
2022-10-19T09:05:57.566Z,0.37
2022-10-19T09:08:24.613Z,0.25
2022-10-19T09:10:53.551Z,0.20
2022-10-19T09:13:47.265Z,0.25
2022-10-19T09:16:26.105Z,0.20
2022-10-19T09:21:40.831Z,0.10
2022-10-19T09:24:29.938Z,0.17
2022-10-19T09:27:01.202Z,0.30
2022-10-19T09:29:33.623Z,0.37
2022-10-19T09:32:03.676Z,0.30
2022-10-19T09:34:36.544Z,0.30
2022-10-19T09:37:04.145Z,0.47
2022-10-19T09:39:31.665Z,0.30
2022-10-19T09:42:04.965Z,0.20
2022-10-19T09:44:32.469Z,0.25
2022-10-19T09:47:14.344Z,0.17
2022-10-19T09:49:46.851Z,0.10
2022-10-19T09:52:37.965Z,0.30
2022-10-19T09:55:14.335Z,0.50
2022-10-19T09:57:48.958Z,0.28
2022-10-19T10:00:33.512Z,0.52
2022-10-19T10:03:00.622Z,0.30
2022-10-19T10:05:39.249Z,0.52
2022-10-19T10:08:15.758Z,0.37
2022-10-19T10:10:46.145Z,0.30
2022-10-19T10:13:21.231Z,0.50
2022-10-19T10:15:54.240Z,0.45
2022-10-19T10:18:24.809Z,0.57
2022-10-19T10:21:24.425Z,0.20
2022-10-19T10:24:01.279Z,0.32
2022-10-19T10:26:28.512Z,0.30
2022-10-19T10:28:57.871Z,0.37
2022-10-19T10:34:12.253Z,0.40
2022-10-19T10:36:53.757Z,0.17
2022-10-19T10:39:20.757Z,0.30
2022-10-19T10:41:49.051Z,0.30
2022-10-19T10:44:23.763Z,0.20
2022-10-19T10:47:01.395Z,0.10
2022-10-19T10:49:38.572Z,0.25
2022-10-19T10:52:17.317Z,0.47
2022-10-19T10:55:04.595Z,0.32
2022-10-19T10:57:40.709Z,0.50
2022-10-19T11:00:14.107Z,0.20
2022-10-19T11:03:05.865Z,0.25
2022-10-19T11:05:38.856Z,0.20
2022-10-19T11:08:18.966Z,0.40
2022-10-19T11:11:01.092Z,0.20
2022-10-19T11:13:34.049Z,0.32
2022-10-19T11:16:06.777Z,0.37
2022-10-19T11:19:02.125Z,0.10
2022-10-19T11:21:36.499Z,0.10
2022-10-19T11:24:33.690Z,0.32
2022-10-19T11:27:26.174Z,0.25
2022-10-19T11:30:09.879Z,0.20
2022-10-19T11:32:54.962Z,0.55
2022-10-19T11:35:33.118Z,0.65
2022-10-19T11:38:18.742Z,0.70
2022-10-19T11:41:16.826Z,0.20
2022-10-19T11:43:51.391Z,0.50
2022-10-19T11:46:37.916Z,0.22
2022-10-19T11:49:29.409Z,0.40
2022-10-19T11:52:11.099Z,0.37
2022-10-19T11:54:57.994Z,0.30
2022-10-19T11:57:39.935Z,0.10
2022-10-19T12:00:37.786Z,0.32
2022-10-19T12:03:35.244Z,0.30
2022-10-19T12:06:35.402Z,0.45
2022-10-19T12:09:25.238Z,0.28
2022-10-19T12:12:03.721Z,0.30
2022-10-19T12:14:35.620Z,0.50
2022-10-19T12:17:09.104Z,0.32
2022-10-19T12:19:49.183Z,0.35
2022-10-19T12:22:21.575Z,0.25
2022-10-19T12:24:50.886Z,0.30
2022-10-19T12:27:20.361Z,0.60
2022-10-19T12:29:49.631Z,0.50
2022-10-19T12:32:19.744Z,0.15
2022-10-19T12:35:00.439Z,0.10
2022-10-19T12:37:44.592Z,0.20
2022-10-19T12:40:40.208Z,0.62
2022-10-19T12:43:31.940Z,0.65
2022-10-19T12:46:13.090Z,0.37
2022-10-19T12:48:40.122Z,0.40
2022-10-19T12:51:12.809Z,0.10
2022-10-19T12:53:48.772Z,0.50
2022-10-19T12:56:23.944Z,0.43
2022-10-19T12:59:01.503Z,0.17
2022-10-19T13:01:42.103Z,0.20
2022-10-19T13:04:12.412Z,0.50
2022-10-19T13:06:59.626Z,0.20
2022-10-19T13:09:38.376Z,0.10
2022-10-19T13:12:21.689Z,0.10
2022-10-19T13:14:57.193Z,0.50
2022-10-19T13:17:37.103Z,0.17
2022-10-19T13:20:15.847Z,0.28
2022-10-19T13:22:51.573Z,0.10
2022-10-19T13:25:35.357Z,0.20
2022-10-19T13:28:12.766Z,0.22
2022-10-19T13:30:39.442Z,0.30
2022-10-19T13:33:33.773Z,0.15
2022-10-19T13:36:00.520Z,0.00
2022-10-19T13:38:30.489Z,0.28
2022-10-19T13:41:09.170Z,0.20
2022-10-19T13:44:06.802Z,0.15
2022-10-19T13:46:58.256Z,0.03
2022-10-19T13:49:50.319Z,0.17
2022-10-19T13:55:28.779Z,0.30
2022-10-19T13:58:14.271Z,0.40
2022-10-19T14:01:16.896Z,0.05
2022-10-19T14:04:05.474Z,0.45
2022-10-19T14:06:35.067Z,0.50
2022-10-19T14:09:34.528Z,0.00
2022-10-19T14:12:08.956Z,0.40
2022-10-19T14:14:44.193Z,0.30
2022-10-19T14:19:57.198Z,0.43
2022-10-19T14:22:25.957Z,0.30
2022-10-19T14:25:01.206Z,0.20
2022-10-19T14:27:28.097Z,0.20
2022-10-19T14:29:55.248Z,0.50
2022-10-19T14:32:30.044Z,0.25
2022-10-19T14:37:32.067Z,0.43
2022-10-19T14:40:27.752Z,0.37
2022-10-19T14:42:57.012Z,0.30
2022-10-19T14:45:32.565Z,0.28
2022-10-19T14:48:07.552Z,0.47
2022-10-19T14:50:47.654Z,0.20
2022-10-19T14:53:36.673Z,0.32
2022-10-19T14:56:13.647Z,0.30
2022-10-19T14:58:46.218Z,0.85
2022-10-19T15:01:13.313Z,0.40
2022-10-19T15:03:44.011Z,0.32
2022-10-19T15:06:29.879Z,0.20
2022-10-19T15:09:00.697Z,0.10
2022-10-19T15:11:31.078Z,0.10
2022-10-19T15:14:02.708Z,0.20
2022-10-19T15:16:42.134Z,0.40
2022-10-19T15:19:30.733Z,0.40
2022-10-19T15:22:15.091Z,0.62
2022-10-19T15:25:01.645Z,0.37
2022-10-19T15:27:35.901Z,0.70
2022-10-19T15:30:05.848Z,0.35
2022-10-19T15:32:37.981Z,0.43
2022-10-19T15:35:16.351Z,0.37
2022-10-19T15:37:45.292Z,0.50
2022-10-19T15:40:19.350Z,0.75
2022-10-19T15:42:48.742Z,0.37
2022-10-19T15:45:35.049Z,0.20
2022-10-19T15:48:11.052Z,0.30
2022-10-19T15:50:43.363Z,0.45
2022-10-19T15:53:10.252Z,0.85
2022-10-19T15:55:36.969Z,0.50
2022-10-19T15:58:03.967Z,0.37
2022-10-19T16:00:31.019Z,0.20
2022-10-19T16:02:58.418Z,0.15
2022-10-19T16:05:25.226Z,0.60
2022-10-19T16:07:51.915Z,0.55
2022-10-19T16:10:22.698Z,0.50
2022-10-19T16:12:49.767Z,0.43
2022-10-19T16:15:22.278Z,0.37
2022-10-19T16:17:54.915Z,0.50
2022-10-19T16:20:22.982Z,0.45
2022-10-19T16:22:51.250Z,0.28
2022-10-19T16:25:18.026Z,0.50
2022-10-19T16:27:44.787Z,0.45
2022-10-19T16:30:12.640Z,0.43
2022-10-19T16:35:11.631Z,0.30
2022-10-19T16:37:38.610Z,0.62
2022-10-19T16:40:05.884Z,0.70
2022-10-19T16:42:33.357Z,0.70
2022-10-19T16:45:01.215Z,0.95
2022-10-19T16:47:27.862Z,0.30
2022-10-19T16:50:00.123Z,0.40
2022-10-19T16:52:28.431Z,0.77
2022-10-19T16:54:55.073Z,0.80
2022-10-19T16:57:21.880Z,0.90
2022-10-19T17:02:24.880Z,0.50
2022-10-19T17:04:51.889Z,0.40
2022-10-19T17:07:19.300Z,0.88
2022-10-19T17:09:46.694Z,0.30
2022-10-19T17:12:15.552Z,0.55
2022-10-19T17:14:42.789Z,0.52
2022-10-19T17:17:10.846Z,0.75
2022-10-19T17:19:38.229Z,0.62
2022-10-19T17:22:05.536Z,0.50
2022-10-19T17:24:32.234Z,0.52
2022-10-19T17:27:03.096Z,0.30
2022-10-19T17:29:30.029Z,0.20
2022-10-19T17:31:57.203Z,0.47
2022-10-19T17:34:24.451Z,0.30
2022-10-19T17:36:51.256Z,0.43
2022-10-19T17:39:25.643Z,0.20
2022-10-19T17:42:01.644Z,0.22
2022-10-19T17:46:57.075Z,0.40
2022-10-19T17:49:23.673Z,0.13
2022-10-19T17:51:53.072Z,0.20
2022-10-19T17:54:20.589Z,0.00
2022-10-19T17:56:47.305Z,0.10
2022-10-19T17:59:14.078Z,0.30
2022-10-19T18:01:41.129Z,0.15
2022-10-19T18:04:08.079Z,0.10
2022-10-19T18:06:36.689Z,0.10
2022-10-19T18:09:07.782Z,0.25
2022-10-19T18:11:39.144Z,0.15
2022-10-19T18:14:08.398Z,0.05
2022-10-19T18:16:39.394Z,0.10
2022-10-19T18:19:07.862Z,0.00
2022-10-19T18:21:41.235Z,0.13
2022-10-19T18:24:15.135Z,0.43
2022-10-19T18:26:43.162Z,0.00
2022-10-19T18:29:13.442Z,0.10
2022-10-19T18:31:40.885Z,0.13
2022-10-19T18:34:12.448Z,0.05
2022-10-19T18:39:07.518Z,0.20
2022-10-19T18:41:34.387Z,0.00
2022-10-19T18:44:04.498Z,0.20
2022-10-19T18:46:34.038Z,0.22
2022-10-19T18:49:01.722Z,0.05
2022-10-19T18:51:29.151Z,0.10
2022-10-19T18:53:55.886Z,0.10
2022-10-19T18:56:24.020Z,0.40
2022-10-19T18:58:51.015Z,0.10
2022-10-19T19:01:20.480Z,0.55
2022-10-19T19:03:49.893Z,0.10
2022-10-19T19:06:19.147Z,0.40
2022-10-19T19:08:46.323Z,0.50
2022-10-19T19:11:14.546Z,0.20
2022-10-19T19:13:42.969Z,0.37
2022-10-19T19:16:09.835Z,0.57
2022-10-19T19:18:36.844Z,0.00
2022-10-19T19:21:12.679Z,0.37
2022-10-19T19:23:39.609Z,0.28
2022-10-19T19:26:07.519Z,0.22
2022-10-19T19:28:36.560Z,0.28
2022-10-19T19:31:07.465Z,0.20
2022-10-19T19:33:34.766Z,0.20
2022-10-19T19:36:05.266Z,0.80
2022-10-19T19:38:32.524Z,0.20
2022-10-19T19:40:59.264Z,0.17
2022-10-19T19:43:25.974Z,0.30
2022-10-19T19:45:57.858Z,0.08
2022-10-19T19:48:24.571Z,0.22
2022-10-19T19:50:51.206Z,0.55
2022-10-19T19:53:18.347Z,0.30
2022-10-19T19:55:49.200Z,0.37
2022-10-19T19:58:16.358Z,0.03
2022-10-19T20:00:43.625Z,0.28
2022-10-19T20:03:12.349Z,0.30
2022-10-19T20:05:40.452Z,0.00
2022-10-19T20:08:08.289Z,0.10
2022-10-19T20:10:39.838Z,0.52
2022-10-19T20:13:06.629Z,0.07
2022-10-19T20:15:33.747Z,0.30
2022-10-19T20:18:00.729Z,0.28
2022-10-19T20:20:27.437Z,0.55
2022-10-19T20:22:54.140Z,0.30
2022-10-19T20:25:21.347Z,0.10
2022-10-19T20:27:47.954Z,0.55
2022-10-19T20:30:14.598Z,0.13
2022-10-19T20:32:41.665Z,0.40
2022-10-19T20:35:08.724Z,0.35
2022-10-19T20:37:35.395Z,0.40
2022-10-19T20:40:08.136Z,0.25
2022-10-19T20:42:35.634Z,0.10
2022-10-19T20:45:03.071Z,0.20
2022-10-19T20:47:29.684Z,0.20
2022-10-19T20:49:56.492Z,0.30
2022-10-19T20:52:23.469Z,0.20
2022-10-19T20:54:50.169Z,0.00
2022-10-19T20:57:16.832Z,0.17
2022-10-19T20:59:45.624Z,0.10
2022-10-19T21:02:12.342Z,0.28
2022-10-19T21:04:39.173Z,0.20
2022-10-19T21:07:06.270Z,0.10
2022-10-19T21:09:32.971Z,0.20
2022-10-19T21:12:01.182Z,0.25
2022-10-19T21:14:30.104Z,0.37
2022-10-19T21:17:01.113Z,0.40
2022-10-19T21:19:29.590Z,0.33
2022-10-19T21:22:01.883Z,0.10
2022-10-19T21:24:34.512Z,0.20
2022-10-19T21:27:03.932Z,0.15
2022-10-19T21:29:31.026Z,0.30
2022-10-19T21:31:57.675Z,0.00
2022-10-19T21:34:26.831Z,0.15
2022-10-19T21:36:54.555Z,0.20
2022-10-19T21:39:22.001Z,0.10
2022-10-19T21:41:49.042Z,0.03
2022-10-19T21:44:17.740Z,0.13
2022-10-19T21:46:46.917Z,0.13
2022-10-19T21:49:13.952Z,0.10
2022-10-19T21:51:45.848Z,0.30
2022-10-19T21:54:15.818Z,0.00
2022-10-19T21:56:43.612Z,0.00
2022-10-19T21:59:12.182Z,0.30
2022-10-19T22:01:41.180Z,0.10
2022-10-19T22:04:14.311Z,0.28
2022-10-19T22:06:41.990Z,0.05
2022-10-19T22:09:12.744Z,0.20
2022-10-19T22:11:39.434Z,0.13
2022-10-19T22:14:06.043Z,0.37
2022-10-19T22:16:35.066Z,0.17
2022-10-19T22:19:01.873Z,0.00
2022-10-19T22:21:31.215Z,0.05
2022-10-19T22:24:04.331Z,0.10
2022-10-19T22:26:33.602Z,0.05
2022-10-19T22:29:01.764Z,0.10
2022-10-19T22:31:30.246Z,0.05
2022-10-19T22:33:56.979Z,0.10
2022-10-19T22:36:24.010Z,0.10
2022-10-19T22:38:50.664Z,0.32
2022-10-19T22:41:17.333Z,0.30
2022-10-19T22:43:44.327Z,0.20
2022-10-19T22:46:10.912Z,0.25
2022-10-19T22:48:37.532Z,0.57
2022-10-19T22:51:04.562Z,0.20
2022-10-19T22:53:31.219Z,0.05
2022-10-19T22:55:57.864Z,0.20
2022-10-19T22:58:24.759Z,0.10
2022-10-19T23:01:02.408Z,0.13
2022-10-19T23:03:29.397Z,0.10
2022-10-19T23:05:56.164Z,0.10
2022-10-19T23:08:22.794Z,0.30
2022-10-19T23:10:49.741Z,0.10
2022-10-19T23:13:16.476Z,0.50
2022-10-19T23:15:44.222Z,0.20
2022-10-19T23:18:11.894Z,0.20
2022-10-19T23:20:38.525Z,0.00
2022-10-19T23:23:05.471Z,0.15
2022-10-19T23:28:04.126Z,0.10
2022-10-19T23:30:30.699Z,0.20
2022-10-19T23:32:57.614Z,0.20
2022-10-19T23:35:24.289Z,0.00
2022-10-19T23:37:50.897Z,0.20
2022-10-19T23:40:17.784Z,0.25
2022-10-19T23:42:44.546Z,0.15
2022-10-19T23:45:13.099Z,0.10
2022-10-19T23:47:39.989Z,0.40
2022-10-19T23:50:06.798Z,0.82
2022-10-19T23:52:33.411Z,0.73
2022-10-19T23:55:00.260Z,0.70
2022-10-19T23:57:26.859Z,0.30
2022-10-19T23:59:53.487Z,0.52
